Time;durP1;ratioP1;P1;durP2;ratioP2;P2;SDS_P1;SDS_P2;PMS_P1;PMS_P2;Temp;Humidity;BMP_temperature;BMP_pressure;BME280_temperature;BME280_humidity;BME280_pressure;Samples;Min_cycle;Max_cycle;Signal;HPM_P1;HPM_P2
2021/09/03 00:00:30;;;;;;;;;12.00;12.00;;;;;18.43;58.06;99136.63;4962519;28;102462;-82
2021/09/03 00:02:57;;;;;;;;;13.67;11.33;;;;;18.43;58.02;99139.38;4961642;28;102647;-83
2021/09/03 00:05:25;;;;;;;;;12.33;12.00;;;;;18.43;57.97;99141.28;4960305;28;104456;-82
2021/09/03 00:08:00;;;;;;;;;12.33;11.67;;;;;18.40;58.19;99136.28;4967061;28;103451;-82
2021/09/03 00:10:32;;;;;;;;;13.67;12.00;;;;;18.39;57.56;99132.72;4963106;28;102838;-82
2021/09/03 00:13:04;;;;;;;;;12.33;12.00;;;;;18.38;57.86;99143.91;4968651;28;102449;-83
2021/09/03 00:15:40;;;;;;;;;12.00;11.33;;;;;18.37;57.70;99137.59;4974843;28;103169;-82
2021/09/03 00:18:16;;;;;;;;;14.67;12.00;;;;;18.37;57.57;99143.06;4962276;28;103011;-82
2021/09/03 00:20:48;;;;;;;;;14.00;12.67;;;;;18.36;57.60;99141.41;4969324;28;103099;-82
2021/09/03 00:23:32;;;;;;;;;11.67;11.33;;;;;18.37;57.79;99137.59;4972300;28;102548;-82
2021/09/03 00:26:09;;;;;;;;;14.33;11.33;;;;;18.36;57.54;99135.94;4963340;28;103158;-82
2021/09/03 00:28:45;;;;;;;;;14.33;12.33;;;;;18.34;57.33;99146.28;4956715;28;102414;-82
2021/09/03 00:31:22;;;;;;;;;15.00;13.00;;;;;18.33;57.55;99138.31;4976094;27;103495;-82
2021/09/03 00:33:56;;;;;;;;;12.67;12.00;;;;;18.30;57.72;99136.88;4975165;28;102274;-82
2021/09/03 00:36:31;;;;;;;;;16.00;14.25;;;;;18.29;57.63;99129.72;4953340;28;108662;-82
2021/09/03 00:39:05;;;;;;;;;13.67;13.00;;;;;18.28;57.47;99133.56;4956695;28;102523;-82
2021/09/03 00:41:36;;;;;;;;;11.67;11.33;;;;;18.27;57.25;99135.47;4967452;28;102441;-82
2021/09/03 00:44:04;;;;;;;;;12.67;12.00;;;;;18.25;57.38;99123.06;4961967;28;102478;-82
2021/09/03 00:46:31;;;;;;;;;12.33;12.00;;;;;18.25;57.00;99115.69;4971989;28;104166;-83
2021/09/03 00:48:58;;;;;;;;;12.33;12.33;;;;;18.25;57.26;99131.28;4966830;28;102512;-83
2021/09/03 00:51:25;;;;;;;;;14.67;13.00;;;;;18.26;57.19;99124.75;4973150;28;103314;-82
2021/09/03 00:53:53;;;;;;;;;13.33;11.33;;;;;18.25;56.99;99118.44;4962509;28;102503;-82
2021/09/03 00:56:20;;;;;;;;;14.33;13.00;;;;;18.24;56.62;99126.88;4949177;28;102885;-82
2021/09/03 00:58:47;;;;;;;;;13.67;12.67;;;;;18.25;57.14;99128.53;4961221;28;102550;-82
2021/09/03 01:01:17;;;;;;;;;14.00;13.00;;;;;18.23;56.74;99114.28;4963488;28;102899;-82
2021/09/03 01:03:44;;;;;;;;;15.00;14.00;;;;;18.23;57.13;99123.31;4948084;28;102663;-82
2021/09/03 01:06:12;;;;;;;;;12.00;11.00;;;;;18.22;56.84;99113.44;4907156;28;104132;-82
2021/09/03 01:08:39;;;;;;;;;13.67;12.67;;;;;18.21;56.84;99116.41;4930751;28;102508;-83
2021/09/03 01:11:10;;;;;;;;;14.50;12.50;;;;;18.19;56.69;99121.31;4953574;28;102741;-82
2021/09/03 01:13:44;;;;;;;;;16.25;14.00;;;;;18.18;56.69;99116.88;4939471;28;102632;-82
2021/09/03 01:16:20;;;;;;;;;14.75;13.25;;;;;18.19;56.13;99113.09;4954512;28;103088;-83
2021/09/03 01:18:54;;;;;;;;;11.50;10.50;;;;;18.19;56.04;99107.63;4963107;28;105205;-82
2021/09/03 01:21:26;;;;;;;;;16.00;13.00;;;;;18.19;56.44;99104.88;4953309;28;102528;-82
2021/09/03 01:24:06;;;;;;;;;12.25;11.50;;;;;18.19;56.41;99113.09;4948100;28;112723;-82
2021/09/03 01:26:42;;;;;;;;;13.00;11.33;;;;;18.18;56.68;99090.34;4957481;28;107565;-82
2021/09/03 01:29:14;;;;;;;;;14.00;12.00;;;;;18.17;56.29;99099.63;4956923;28;102370;-82
2021/09/03 01:31:51;;;;;;;;;9.00;7.33;;;;;18.16;56.55;99076.06;4963238;28;104392;-82
2021/09/03 01:34:25;;;;;;;;;15.67;14.33;;;;;18.16;56.06;99097.13;4961386;28;102633;-82
2021/09/03 01:36:58;;;;;;;;;13.75;12.75;;;;;18.15;56.96;99079.03;4948843;28;107913;-82
2021/09/03 01:39:32;;;;;;;;;14.00;12.67;;;;;18.13;56.35;99082.03;4960592;28;102436;-82
2021/09/03 01:42:08;;;;;;;;;14.33;12.00;;;;;18.13;56.85;99097.59;4958024;28;102539;-82
2021/09/03 01:44:41;;;;;;;;;16.67;15.33;;;;;18.11;56.09;99091.53;4961858;28;102234;-82
2021/09/03 01:47:18;;;;;;;;;12.50;12.00;;;;;18.12;56.30;99091.28;4962559;28;103414;-82
2021/09/03 01:49:50;;;;;;;;;17.50;14.75;;;;;18.12;56.79;99090.47;4975487;28;104552;-82
2021/09/03 01:52:17;;;;;;;;;15.50;13.00;;;;;18.10;56.83;99082.47;4963156;28;102656;-82
2021/09/03 01:54:45;;;;;;;;;20.00;17.00;;;;;18.10;56.27;99087.94;4974109;28;102546;-82
2021/09/03 01:57:12;;;;;;;;;14.50;14.50;;;;;18.10;56.21;99087.16;4979702;28;104296;-82
2021/09/03 01:59:39;;;;;;;;;14.50;10.00;;;;;18.10;56.57;99077.00;4968529;28;103545;-83
2021/09/03 02:02:06;;;;;;;;;14.75;13.25;;;;;18.10;56.07;99081.66;4962370;28;103627;-82
2021/09/03 02:04:34;;;;;;;;;17.25;15.75;;;;;18.08;56.62;99081.06;4982189;28;104044;-82
2021/09/03 02:07:01;;;;;;;;;14.33;14.33;;;;;18.08;56.11;99076.41;4967031;28;104386;-82
2021/09/03 02:09:28;;;;;;;;;17.00;14.75;;;;;18.08;55.85;99075.59;4967598;28;102717;-82
2021/09/03 02:11:55;;;;;;;;;14.75;13.50;;;;;18.07;56.35;99082.13;4969813;28;102346;-82
2021/09/03 02:14:22;;;;;;;;;12.75;11.75;;;;;18.06;56.43;99072.25;4961580;28;102657;-82
2021/09/03 02:16:49;;;;;;;;;14.25;12.50;;;;;18.05;56.09;99068.69;4963260;28;103829;-82
2021/09/03 02:19:16;;;;;;;;;15.50;15.00;;;;;18.05;56.39;99073.34;4970859;28;102409;-82
2021/09/03 02:21:44;;;;;;;;;13.50;12.25;;;;;18.05;56.55;99056.91;4957169;28;102346;-82
2021/09/03 02:24:11;;;;;;;;;12.00;12.00;;;;;18.03;56.44;99048.94;4964903;28;102414;-82
2021/09/03 02:26:38;;;;;;;;;15.67;12.00;;;;;18.03;55.72;99059.88;4970171;28;104055;-82
2021/09/03 02:29:05;;;;;;;;;13.75;12.25;;;;;18.03;55.46;99054.41;4957755;28;102667;-82
2021/09/03 02:31:32;;;;;;;;;14.50;13.50;;;;;18.02;55.65;99049.16;4968387;28;103563;-83
2021/09/03 02:33:59;;;;;;;;;17.50;14.50;;;;;18.00;55.78;99048.59;4979007;28;102655;-82
2021/09/03 02:36:27;;;;;;;;;17.75;14.75;;;;;18.00;56.00;99038.47;4969073;28;109070;-82
2021/09/03 02:38:54;;;;;;;;;16.00;15.00;;;;;18.00;55.43;99033.00;4973881;28;102592;-82
2021/09/03 02:41:21;;;;;;;;;17.50;15.50;;;;;18.00;56.23;99043.94;4962410;28;102823;-82
2021/09/03 02:43:48;;;;;;;;;14.50;13.50;;;;;17.98;55.72;99034.28;4971646;28;102665;-82
2021/09/03 02:46:15;;;;;;;;;14.75;14.00;;;;;17.98;55.98;99039.75;4965402;28;104069;-82
2021/09/03 02:48:42;;;;;;;;;12.00;12.00;;;;;17.96;55.56;99040.03;4966323;28;102465;-82
2021/09/03 02:51:09;;;;;;;;;16.67;16.00;;;;;17.98;55.57;99047.97;4964856;28;102634;-82
2021/09/03 02:53:36;;;;;;;;;15.50;14.75;;;;;17.96;56.16;99044.66;4967349;28;102747;-83
2021/09/03 02:56:04;;;;;;;;;16.00;14.25;;;;;17.96;55.89;99039.19;4970104;28;103806;-82
2021/09/03 02:58:31;;;;;;;;;15.00;13.00;;;;;17.96;55.93;99041.91;4952665;28;102568;-82
2021/09/03 03:00:58;;;;;;;;;13.50;13.25;;;;;17.95;55.57;99034.78;4956400;28;102419;-82
2021/09/03 03:03:28;;;;;;;;;14.00;13.75;;;;;17.94;55.82;99042.16;4957975;28;102475;-82
2021/09/03 03:05:55;;;;;;;;;13.00;12.50;;;;;17.94;55.44;99046.78;4953863;28;104133;-82
2021/09/03 03:08:22;;;;;;;;;17.00;14.00;;;;;17.93;55.33;99034.16;4955444;28;104954;-82
2021/09/03 03:10:50;;;;;;;;;15.25;14.25;;;;;17.92;55.37;99033.34;4962426;28;102488;-82
2021/09/03 03:13:26;;;;;;;;;13.00;12.25;;;;;17.93;54.92;99036.91;4947034;28;102861;-82
2021/09/03 03:15:53;;;;;;;;;15.00;14.00;;;;;17.91;55.07;99033.59;4953146;28;104195;-82
2021/09/03 03:18:20;;;;;;;;;14.50;13.50;;;;;17.89;55.29;99035.72;4949006;28;102444;-82
2021/09/03 03:20:48;;;;;;;;;15.25;14.50;;;;;17.91;55.01;99036.31;4953181;28;110320;-82
2021/09/03 03:23:15;;;;;;;;;16.50;14.75;;;;;17.89;54.67;99035.72;4965144;28;102222;-82
2021/09/03 03:25:43;;;;;;;;;14.75;12.50;;;;;17.88;55.38;99028.59;4961345;28;104132;-82
2021/09/03 03:28:10;;;;;;;;;15.50;13.25;;;;;17.88;54.91;99036.81;4956377;28;102499;-82
2021/09/03 03:30:37;;;;;;;;;16.00;13.00;;;;;17.87;55.36;99026.94;4973191;28;102656;-82
2021/09/03 03:33:05;;;;;;;;;15.00;13.00;;;;;17.86;54.89;99015.16;4958699;28;102226;-82
2021/09/03 03:35:32;;;;;;;;;16.00;14.50;;;;;17.86;55.34;99017.88;4952621;28;104113;-82
2021/09/03 03:38:01;;;;;;;;;15.00;14.50;;;;;17.83;54.46;99013.72;4972977;28;102451;-82
2021/09/03 03:40:32;;;;;;;;;14.00;13.25;;;;;17.82;54.42;99013.97;4951016;28;102237;-82
2021/09/03 03:43:01;;;;;;;;;16.00;14.00;;;;;17.76;55.23;99004.78;4962131;28;102531;-82
2021/09/03 03:45:29;;;;;;;;;12.50;11.25;;;;;17.80;54.57;99021.56;4961730;28;107917;-82
2021/09/03 03:47:56;;;;;;;;;15.50;12.50;;;;;17.80;54.99;99013.34;4956111;28;102566;-82
2021/09/03 03:50:24;;;;;;;;;14.50;12.00;;;;;17.80;54.46;99021.56;4952813;28;102472;-82
2021/09/03 03:52:51;;;;;;;;;14.25;13.00;;;;;17.79;54.56;99026.19;4974193;28;102301;-82
2021/09/03 03:55:18;;;;;;;;;15.25;14.50;;;;;17.80;54.67;99016.09;4962322;28;102985;-82
2021/09/03 03:57:45;;;;;;;;;12.75;12.25;;;;;17.79;54.62;99025.34;4948576;28;102648;-82
2021/09/03 04:00:13;;;;;;;;;14.50;14.25;;;;;17.77;54.69;99011.94;4955300;28;103121;-82
2021/09/03 04:02:40;;;;;;;;;13.50;12.75;;;;;17.77;54.25;99009.22;4963867;28;102905;-82
2021/09/03 04:05:08;;;;;;;;;14.50;12.25;;;;;17.75;53.92;99016.81;4974984;28;104127;-82
2021/09/03 04:07:35;;;;;;;;;13.25;12.00;;;;;17.73;54.25;99015.38;4970800;28;102345;-83
2021/09/03 04:10:04;;;;;;;;;15.75;14.00;;;;;17.71;54.27;99010.16;4954994;28;102522;-82
2021/09/03 04:12:31;;;;;;;;;13.00;11.75;;;;;17.72;53.75;99008.25;4939009;28;102672;-82
2021/09/03 04:14:58;;;;;;;;;11.50;10.00;;;;;17.73;54.47;99007.19;4969462;28;104092;-82
2021/09/03 04:17:25;;;;;;;;;15.00;13.00;;;;;17.70;54.16;99008.47;4968746;28;102828;-82
2021/09/03 04:19:52;;;;;;;;;13.50;13.00;;;;;17.70;54.02;99005.75;4963137;28;104016;-82
2021/09/03 04:22:20;;;;;;;;;13.75;12.50;;;;;17.70;54.29;99013.09;4966183;28;102232;-82
2021/09/03 04:24:47;;;;;;;;;13.25;13.00;;;;;17.69;53.34;99009.56;4959430;28;104254;-82
2021/09/03 04:27:14;;;;;;;;;16.00;13.00;;;;;17.68;53.45;99007.06;4977553;28;105561;-82
2021/09/03 04:29:41;;;;;;;;;13.25;11.00;;;;;17.68;53.69;99015.25;4970761;28;103447;-82
2021/09/03 04:32:08;;;;;;;;;14.50;12.50;;;;;17.68;54.42;99002.44;4965941;27;102670;-82
2021/09/03 04:34:35;;;;;;;;;14.25;12.00;;;;;17.67;53.63;99008.13;4979358;28;104249;-82
2021/09/03 04:37:03;;;;;;;;;14.00;11.00;;;;;17.66;53.50;98996.34;4955740;28;102432;-82
2021/09/03 04:39:30;;;;;;;;;13.25;11.75;;;;;17.66;54.04;99012.75;4959326;28;102292;-82
2021/09/03 04:41:57;;;;;;;;;12.50;12.25;;;;;17.66;53.42;99009.19;4964234;28;103458;-82
2021/09/03 04:44:24;;;;;;;;;15.00;13.00;;;;;17.62;53.62;98995.16;4945843;28;104189;-82
2021/09/03 04:46:51;;;;;;;;;13.00;13.00;;;;;17.61;53.83;99003.59;4961668;28;102439;-82
2021/09/03 04:49:18;;;;;;;;;12.00;11.25;;;;;17.60;53.57;99008.25;4963584;28;102431;-83
2021/09/03 04:51:45;;;;;;;;;14.25;14.00;;;;;17.59;53.02;99005.75;4970845;28;103731;-82
2021/09/03 04:54:13;;;;;;;;;11.25;9.75;;;;;17.58;53.09;99013.09;4969926;27;104260;-83
2021/09/03 04:56:40;;;;;;;;;15.00;12.00;;;;;17.58;53.72;99007.63;4985124;28;102437;-83
2021/09/03 04:59:07;;;;;;;;;12.50;12.00;;;;;17.57;53.31;99014.13;4965244;28;102439;-82
2021/09/03 05:01:34;;;;;;;;;13.75;11.25;;;;;17.57;53.95;99014.13;4959707;28;105209;-83
2021/09/03 05:04:02;;;;;;;;;11.33;11.00;;;;;17.57;53.82;99016.88;4973400;28;104558;-82
2021/09/03 05:06:29;;;;;;;;;18.50;13.75;;;;;17.57;52.99;99011.41;4958434;28;102585;-82
2021/09/03 05:08:56;;;;;;;;;12.25;11.50;;;;;17.56;53.31;99009.72;4966373;28;102409;-83
2021/09/03 05:11:24;;;;;;;;;8.75;8.50;;;;;17.55;53.18;99007.25;4958606;28;103139;-83
2021/09/03 05:13:51;;;;;;;;;11.00;11.00;;;;;17.51;53.49;99006.06;4950417;28;104079;-83
2021/09/03 05:16:18;;;;;;;;;11.00;10.00;;;;;17.50;52.79;99016.16;4952759;28;102623;-82
2021/09/03 05:18:45;;;;;;;;;13.00;12.00;;;;;17.50;53.34;99010.69;4963762;28;103377;-82
2021/09/03 05:21:12;;;;;;;;;9.75;9.00;;;;;17.53;53.19;99009.38;4962592;28;102495;-82
2021/09/03 05:23:39;;;;;;;;;12.25;11.25;;;;;17.52;53.14;99008.53;4970484;28;104292;-81
2021/09/03 05:26:07;;;;;;;;;11.75;11.25;;;;;17.51;53.37;99001.44;4962813;28;104275;-81
2021/09/03 05:28:34;;;;;;;;;12.50;10.50;;;;;17.51;52.85;99017.84;4970342;28;102741;-81
2021/09/03 05:31:01;;;;;;;;;14.25;10.50;;;;;17.51;52.86;99008.78;4971368;28;102657;-82
2021/09/03 05:33:29;;;;;;;;;13.75;12.25;;;;;17.50;53.39;99009.84;4961848;28;104050;-81
2021/09/03 05:35:56;;;;;;;;;12.75;12.75;;;;;17.49;52.59;99014.50;4966527;28;103480;-82
2021/09/03 05:38:28;;;;;;;;;13.50;12.75;;;;;17.47;52.91;99013.88;4963539;28;102556;-82
2021/09/03 05:40:55;;;;;;;;;15.50;11.50;;;;;17.47;53.44;99004.88;4952822;28;103123;-82
2021/09/03 05:43:22;;;;;;;;;14.75;12.00;;;;;17.47;53.53;99010.34;4953409;28;104240;-82
2021/09/03 05:45:49;;;;;;;;;11.00;11.00;;;;;17.48;53.12;99011.97;4969924;28;102256;-81
2021/09/03 05:48:17;;;;;;;;;11.75;11.75;;;;;17.45;53.16;99007.84;4957086;28;102236;-82
2021/09/03 05:50:44;;;;;;;;;13.25;12.00;;;;;17.43;53.47;98999.00;4965365;28;102374;-82
2021/09/03 05:53:11;;;;;;;;;13.00;12.50;;;;;17.44;53.34;99006.16;4953825;28;104096;-82
2021/09/03 05:55:38;;;;;;;;;11.75;10.75;;;;;17.46;53.08;98998.56;4943074;28;102697;-82
2021/09/03 05:58:05;;;;;;;;;11.75;11.25;;;;;17.45;53.65;98999.63;4975544;28;103528;-82
2021/09/03 06:00:32;;;;;;;;;16.50;11.25;;;;;17.44;53.30;99003.41;4970998;28;102427;-82
2021/09/03 06:03:00;;;;;;;;;10.00;10.00;;;;;17.44;53.56;99003.41;4953315;28;104238;-82
2021/09/03 06:05:27;;;;;;;;;13.00;12.00;;;;;17.43;52.91;99001.75;4968004;28;102698;-82
2021/09/03 06:07:54;;;;;;;;;13.25;10.50;;;;;17.43;53.86;99001.75;4964861;28;102745;-82
2021/09/03 06:10:21;;;;;;;;;11.00;10.00;;;;;17.44;52.68;98988.91;4958019;28;102726;-82
2021/09/03 06:12:50;;;;;;;;;12.25;11.25;;;;;17.44;53.09;98999.84;4973732;28;104307;-82
2021/09/03 06:15:17;;;;;;;;;10.25;10.00;;;;;17.43;53.44;99001.75;4960722;28;110491;-82
2021/09/03 06:17:44;;;;;;;;;10.00;9.75;;;;;17.43;53.74;98999.00;4956954;28;102467;-82
2021/09/03 06:20:12;;;;;;;;;14.00;11.00;;;;;17.42;53.55;98998.19;4960244;28;102860;-82
2021/09/03 06:22:39;;;;;;;;;11.25;9.50;;;;;17.46;53.20;99000.47;4958481;28;104102;-82
2021/09/03 06:25:07;;;;;;;;;9.25;7.75;;;;;17.47;53.39;98988.47;4942803;28;103831;-82
2021/09/03 06:27:34;;;;;;;;;11.25;9.00;;;;;17.46;53.91;98987.63;4969164;28;102615;-82
2021/09/03 06:30:01;;;;;;;;;10.00;10.00;;;;;17.47;53.33;98994.75;4959866;28;103483;-82
2021/09/03 06:32:29;;;;;;;;;9.00;9.00;;;;;17.46;53.17;98987.63;4954965;28;104066;-82
2021/09/03 06:34:57;;;;;;;;;8.00;8.00;;;;;17.49;53.89;98992.63;4972026;27;102654;-82
2021/09/03 06:37:25;;;;;;;;;12.50;11.00;;;;;17.50;53.80;98994.28;4936520;28;103645;-82
2021/09/03 06:40:29;;;;;;;;;10.33;10.00;;;;;17.50;54.14;98988.81;4945209;28;107839;-82
2021/09/03 06:42:57;;;;;;;;;10.50;10.50;;;;;17.50;54.54;98983.34;4960721;28;109795;-82
2021/09/03 06:45:24;;;;;;;;;9.75;9.00;;;;;17.48;53.60;98980.00;4957339;28;102476;-82
2021/09/03 06:47:51;;;;;;;;;11.75;10.00;;;;;17.50;54.14;98983.34;4956498;28;102782;-82
2021/09/03 06:50:18;;;;;;;;;10.50;9.00;;;;;17.51;53.31;98984.19;4960101;28;102764;-82
2021/09/03 06:52:46;;;;;;;;;12.75;9.75;;;;;17.52;53.85;98986.66;4944143;28;104078;-82
2021/09/03 06:55:14;;;;;;;;;9.25;9.25;;;;;17.52;54.59;98981.19;4966182;28;102459;-82
2021/09/03 06:57:42;;;;;;;;;8.67;8.33;;;;;17.54;53.57;98987.28;4966280;28;102210;-82
2021/09/03 07:00:09;;;;;;;;;10.75;9.00;;;;;17.56;54.67;98976.13;4961549;28;102658;-82
2021/09/03 07:02:37;;;;;;;;;8.25;8.25;;;;;17.56;54.52;98993.31;4970229;28;104123;-82
2021/09/03 07:05:05;;;;;;;;;10.75;9.75;;;;;17.56;54.44;98990.59;4947766;28;102709;-82
2021/09/03 07:07:33;;;;;;;;;11.00;9.75;;;;;17.55;54.99;98986.22;4945092;28;102541;-82
2021/09/03 07:10:00;;;;;;;;;8.75;8.50;;;;;17.58;54.78;98983.03;4958397;28;102369;-82
2021/09/03 07:12:28;;;;;;;;;7.50;5.00;;;;;17.59;55.17;98979.22;4962429;28;104145;-82
2021/09/03 07:14:55;;;;;;;;;11.00;10.00;;;;;17.60;54.77;98983.63;4953918;28;102369;-81
2021/09/03 07:17:22;;;;;;;;;7.00;6.00;;;;;17.64;55.19;98984.81;4954520;28;103283;-81
2021/09/03 07:19:49;;;;;;;;;11.00;8.33;;;;;17.66;54.58;98984.56;4975137;28;102635;-81
2021/09/03 07:22:16;;;;;;;;;10.00;8.00;;;;;17.70;55.07;98983.84;4946964;28;104135;-82
2021/09/03 07:24:43;;;;;;;;;7.33;7.00;;;;;17.74;55.34;98976.03;4952724;28;102532;-82
2021/09/03 07:27:10;;;;;;;;;6.00;5.67;;;;;17.74;56.05;98971.38;4967708;28;102204;-82
2021/09/03 07:29:38;;;;;;;;;9.00;7.67;;;;;17.77;56.87;98983.75;4964307;28;103118;-82
2021/09/03 07:32:05;;;;;;;;;7.00;7.00;;;;;17.75;58.54;98973.03;4960801;28;109163;-82
2021/09/03 07:34:32;;;;;;;;;7.00;6.00;;;;;17.74;58.07;98973.28;4947638;28;102200;-82
2021/09/03 07:37:00;;;;;;;;;8.33;7.33;;;;;17.74;58.07;98971.38;4968798;28;102573;-82
2021/09/03 07:39:29;;;;;;;;;7.00;6.00;;;;;17.74;58.42;98967.81;4976766;28;102576;-82
2021/09/03 07:41:56;;;;;;;;;8.25;7.50;;;;;17.73;58.59;98967.00;4969900;28;104122;-82
2021/09/03 07:44:23;;;;;;;;;8.50;8.00;;;;;17.73;59.50;98972.47;4967669;28;102611;-82
2021/09/03 07:46:51;;;;;;;;;7.00;7.00;;;;;17.74;59.84;98967.81;4964788;28;103344;-82
2021/09/03 07:49:18;;;;;;;;;9.33;9.00;;;;;17.74;58.94;98965.91;4967156;28;102570;-82
2021/09/03 07:51:45;;;;;;;;;9.00;7.33;;;;;17.75;59.27;98964.84;4960784;28;105125;-82
2021/09/03 07:54:14;;;;;;;;;5.75;4.75;;;;;17.79;59.54;98963.28;4964912;28;102570;-82
2021/09/03 07:56:41;;;;;;;;;8.67;8.00;;;;;17.81;59.70;98958.41;4960803;28;102542;-82
2021/09/03 07:59:09;;;;;;;;;8.67;8.00;;;;;17.84;58.99;98952.47;4968811;28;102664;-84
2021/09/03 08:01:36;;;;;;;;;6.67;6.00;;;;;17.87;58.51;98962.09;4962963;28;104414;-85
2021/09/03 08:04:04;;;;;;;;;6.00;6.00;;;;;17.89;58.55;98967.31;4959308;28;102382;-85
2021/09/03 08:06:31;;;;;;;;;9.00;7.67;;;;;17.91;59.48;98948.78;4962846;28;102569;-85
2021/09/03 08:08:58;;;;;;;;;6.33;6.00;;;;;17.92;59.47;98943.03;4961232;28;105773;-85
2021/09/03 08:11:26;;;;;;;;;6.67;6.67;;;;;17.93;58.85;98943.88;4972700;28;104269;-85
2021/09/03 08:13:53;;;;;;;;;7.67;5.00;;;;;17.92;58.93;98940.31;4967326;28;102634;-85
2021/09/03 08:16:20;;;;;;;;;8.33;7.67;;;;;17.95;58.44;98947.22;4966165;28;102770;-85
2021/09/03 08:18:47;;;;;;;;;7.67;6.67;;;;;17.96;59.50;98943.41;4958017;28;102507;-83
2021/09/03 08:21:14;;;;;;;;;7.00;7.00;;;;;18.01;58.27;98941.59;4972643;28;104162;-86
2021/09/03 08:23:43;;;;;;;;;7.00;6.00;;;;;18.02;58.78;98939.69;4941354;28;102566;-85
2021/09/03 08:26:10;;;;;;;;;6.33;6.00;;;;;18.03;58.38;98936.75;4961543;28;102665;-86
2021/09/03 08:28:37;;;;;;;;;6.00;6.00;;;;;18.05;59.16;98931.88;4959972;28;102425;-86
2021/09/03 08:31:04;;;;;;;;;6.00;5.00;;;;;18.05;60.66;98931.03;4963064;28;108862;-87
2021/09/03 08:33:31;;;;;;;;;6.67;6.67;;;;;18.06;60.17;98929.94;4955186;28;103617;-86
2021/09/03 08:35:59;;;;;;;;;7.67;6.67;;;;;18.07;60.83;98931.59;4972952;28;102918;-86
2021/09/03 08:38:26;;;;;;;;;4.67;4.67;;;;;18.08;61.00;98933.28;4963665;28;103155;-86
2021/09/03 08:40:56;;;;;;;;;3.67;3.67;;;;;18.08;61.37;98930.53;4956549;28;104089;-86
2021/09/03 08:43:24;;;;;;;;;5.00;5.00;;;;;18.09;60.55;98932.22;4972506;28;102652;-86
2021/09/03 08:45:51;;;;;;;;;6.00;6.00;;;;;18.10;61.03;98931.94;4952995;28;102390;-86
2021/09/03 08:48:20;;;;;;;;;6.33;5.33;;;;;18.10;61.79;98925.66;4968812;28;105374;-86
2021/09/03 08:50:47;;;;;;;;;6.00;5.33;;;;;18.11;61.69;98924.56;4964746;28;104347;-87
2021/09/03 08:53:16;;;;;;;;;7.00;6.00;;;;;18.12;61.78;98921.59;4949708;28;102581;-87
2021/09/03 08:55:47;;;;;;;;;6.00;6.00;;;;;18.13;61.25;98922.44;4965499;28;102412;-87
2021/09/03 08:58:15;;;;;;;;;5.33;4.67;;;;;18.14;61.60;98918.63;4943286;28;102646;-86
2021/09/03 09:00:42;;;;;;;;;8.00;5.67;;;;;18.15;61.62;98923.00;4963569;28;104098;-86
2021/09/03 09:03:14;;;;;;;;;6.00;5.33;;;;;18.15;61.75;98923.00;4948077;28;104094;-85
2021/09/03 09:05:48;;;;;;;;;5.67;4.67;;;;;18.17;61.66;98921.72;4969724;28;103704;-86
2021/09/03 09:08:16;;;;;;;;;5.33;4.67;;;;;18.17;61.92;98926.34;4949798;28;102799;-86
2021/09/03 09:11:03;;;;;;;;;4.67;4.67;;;;;18.18;62.14;98925.28;4928189;28;104100;-86
2021/09/03 09:13:32;;;;;;;;;5.00;5.00;;;;;18.18;61.89;98915.19;4964917;28;104137;-86
2021/09/03 09:16:13;;;;;;;;;5.00;5.00;;;;;18.19;62.12;98910.53;4950906;28;102592;-86
2021/09/03 09:18:45;;;;;;;;;7.00;6.00;;;;;18.21;62.13;98900.16;4953628;28;109144;-86
2021/09/03 09:21:29;;;;;;;;;5.00;5.00;;;;;18.21;61.68;98902.91;4954931;28;109377;-86
2021/09/03 09:24:00;;;;;;;;;6.00;6.00;;;;;18.22;61.93;98908.13;4957224;28;102440;-86
2021/09/03 09:26:49;;;;;;;;;7.00;6.00;;;;;18.23;62.46;98907.06;4954066;28;102835;-86
2021/09/03 09:29:26;;;;;;;;;6.00;6.00;;;;;18.24;61.88;98905.97;4966943;28;103602;-86
2021/09/03 09:32:13;;;;;;;;;6.67;5.00;;;;;18.25;61.69;98902.16;4972798;28;104106;-86
2021/09/03 09:34:41;;;;;;;;;4.00;4.00;;;;;18.25;61.86;98902.16;4949535;28;105488;-86
2021/09/03 09:37:11;;;;;;;;;6.33;5.33;;;;;18.27;61.62;98888.25;4957789;28;103522;-86
2021/09/03 09:39:50;;;;;;;;;6.00;6.00;;;;;18.27;62.10;98902.78;4959255;28;102683;-87
2021/09/03 09:42:30;;;;;;;;;9.00;7.00;;;;;18.28;61.96;98887.97;4956067;28;108732;-86
2021/09/03 09:45:04;;;;;;;;;5.00;4.67;;;;;18.29;62.53;98888.81;4945030;28;102564;-87
2021/09/03 09:47:32;;;;;;;;;5.00;5.00;;;;;18.26;62.22;98889.31;4966450;28;102382;-87
2021/09/03 09:50:26;;;;;;;;;6.00;5.67;;;;;18.31;62.48;98877.63;4965049;28;102414;-87
2021/09/03 09:52:53;;;;;;;;;6.00;5.00;;;;;18.32;62.34;98874.66;4957288;28;108889;-86
2021/09/03 09:55:21;;;;;;;;;5.00;5.00;;;;;18.32;62.92;98877.41;4958769;28;102285;-86
2021/09/03 09:57:49;;;;;;;;;6.33;5.67;;;;;18.34;62.34;98874.41;4963560;28;102612;-86
2021/09/03 10:00:17;;;;;;;;;8.00;7.00;;;;;18.34;62.78;98872.50;4956968;28;103941;-86
2021/09/03 10:02:44;;;;;;;;;4.00;4.00;;;;;18.35;62.27;98879.63;4965909;28;104302;-86
2021/09/03 10:05:11;;;;;;;;;6.00;5.33;;;;;18.37;62.87;98874.72;4950489;28;102751;-86
2021/09/03 10:07:39;;;;;;;;;5.33;5.00;;;;;18.37;62.71;98874.72;4951132;28;102998;-86
2021/09/03 10:10:06;;;;;;;;;5.00;5.00;;;;;18.40;62.53;98873.44;4957651;28;103734;-86
2021/09/03 10:12:33;;;;;;;;;5.67;5.00;;;;;18.40;63.27;98868.78;4957224;28;104532;-86
2021/09/03 10:15:00;;;;;;;;;6.00;6.00;;;;;18.39;62.99;98872.59;4930005;28;102570;-86
2021/09/03 10:17:30;;;;;;;;;5.67;5.67;;;;;18.42;62.83;98872.09;4973324;28;102550;-86
2021/09/03 10:19:57;;;;;;;;;6.00;5.00;;;;;18.42;62.87;98871.25;4960274;28;102480;-86
2021/09/03 10:22:26;;;;;;;;;4.00;3.33;;;;;18.44;63.09;98869.13;4915093;28;104966;-85
2021/09/03 10:25:14;;;;;;;;;5.00;4.00;;;;;18.44;62.31;98859.00;4938721;28;102250;-85
2021/09/03 10:27:41;;;;;;;;;6.00;5.00;;;;;18.46;62.84;98861.50;4933041;28;103031;-85
2021/09/03 10:30:16;;;;;;;;;5.33;5.00;;;;;18.46;63.26;98851.34;4931887;28;102711;-85
2021/09/03 10:32:43;;;;;;;;;4.00;4.00;;;;;18.48;63.02;98851.97;4930691;28;108985;-85
2021/09/03 10:35:18;;;;;;;;;5.00;5.00;;;;;18.47;63.41;98841.25;4906848;28;103618;-85
2021/09/03 10:37:45;;;;;;;;;5.00;5.00;;;;;18.50;63.25;98849.81;4923056;28;102557;-85
2021/09/03 10:40:36;;;;;;;;;6.00;6.00;;;;;18.52;63.52;98844.06;4941983;28;102537;-85
2021/09/03 10:43:03;;;;;;;;;5.00;4.00;;;;;18.52;63.09;98833.97;4919233;28;109135;-85
2021/09/03 10:45:40;;;;;;;;;5.33;5.00;;;;;18.54;63.23;98836.50;4928635;28;102163;-85
2021/09/03 10:48:12;;;;;;;;;6.67;4.33;;;;;18.55;63.25;98841.69;4935123;28;102514;-85
2021/09/03 10:50:53;;;;;;;;;6.00;6.00;;;;;18.53;63.54;98845.78;4935912;28;103603;-83
2021/09/03 10:53:37;;;;;;;;;6.33;5.00;;;;;18.58;62.29;98827.53;4919553;28;109849;-86
2021/09/03 10:56:09;;;;;;;;;5.33;5.00;;;;;18.59;62.49;98834.69;4943327;28;103390;-86
2021/09/03 10:58:36;;;;;;;;;6.00;4.67;;;;;18.58;63.05;98827.53;4928355;28;102429;-86
2021/09/03 11:01:10;;;;;;;;;5.00;5.00;;;;;18.60;62.99;98824.53;4933485;28;102369;-86
2021/09/03 11:03:52;;;;;;;;;7.33;5.00;;;;;18.60;63.14;98814.41;4937495;28;104361;-86
2021/09/03 11:06:25;;;;;;;;;5.00;5.00;;;;;18.61;63.11;98813.34;4932610;28;102706;-85
2021/09/03 11:08:55;;;;;;;;;6.33;5.67;;;;;18.63;63.14;98807.63;4929018;28;102810;-85
2021/09/03 11:11:34;;;;;;;;;4.00;4.00;;;;;18.64;63.74;98809.28;4942960;28;102692;-85
2021/09/03 11:14:05;;;;;;;;;5.00;5.00;;;;;18.65;63.46;98799.97;4924754;28;104186;-86
2021/09/03 11:16:40;;;;;;;;;7.00;5.00;;;;;18.66;63.48;98796.16;4929092;28;103591;-86
2021/09/03 11:19:08;;;;;;;;;7.00;4.00;;;;;18.66;63.75;98802.47;4926835;28;102438;-86
2021/09/03 11:21:56;;;;;;;;;5.33;5.00;;;;;18.67;63.38;98795.91;4931242;28;104137;-86
2021/09/03 11:24:27;;;;;;;;;5.33;5.33;;;;;18.68;63.58;98800.31;4926094;28;108768;-86
2021/09/03 11:26:56;;;;;;;;;5.33;4.67;;;;;18.69;63.97;98793.75;4936368;28;102042;-86